sensor_id;sensor_type;location;lat;lon;timestamp;P1;durP1;ratioP1;P2;durP2;ratioP2
53688;SDS011;39583;54.682;30.662;2023-05-03T06:52:49;3.70;;;3.50;;
53688;SDS011;39583;54.682;30.662;2023-05-03T06:55:15;3.60;;;3.40;;
53688;SDS011;39583;54.682;30.662;2023-05-03T06:57:42;5.93;;;5.63;;
53688;SDS011;39583;54.682;30.662;2023-05-03T07:00:08;4.93;;;4.63;;
53688;SDS011;39583;54.682;30.662;2023-05-03T07:02:35;5.18;;;4.88;;
53688;SDS011;39583;54.682;30.662;2023-05-03T07:05:01;5.38;;;5.07;;
53688;SDS011;39583;54.682;30.662;2023-05-03T07:07:27;5.82;;;5.53;;
53688;SDS011;39583;54.682;30.662;2023-05-03T07:09:53;4.72;;;4.45;;
53688;SDS011;39583;54.682;30.662;2023-05-03T07:12:19;5.47;;;5.18;;
53688;SDS011;39583;54.682;30.662;2023-05-03T11:09:13;8.93;;;8.27;;
53688;SDS011;39583;54.682;30.662;2023-05-03T11:11:40;9.05;;;8.38;;
53688;SDS011;39583;54.682;30.662;2023-05-03T11:14:07;9.23;;;8.55;;
53688;SDS011;39583;54.682;30.662;2023-05-03T11:16:33;14.85;;;13.55;;
53688;SDS011;39583;54.682;30.662;2023-05-03T11:19:02;10.30;;;9.70;;
53688;SDS011;39583;54.682;30.662;2023-05-03T11:21:28;15.48;;;14.57;;
53688;SDS011;39583;54.682;30.662;2023-05-03T11:23:54;13.32;;;12.60;;
53688;SDS011;39583;54.682;30.662;2023-05-03T11:26:22;13.38;;;12.48;;
53688;SDS011;39583;54.682;30.662;2023-05-03T11:28:50;13.80;;;13.00;;
53688;SDS011;39583;54.682;30.662;2023-05-03T11:31:16;13.95;;;13.13;;
53688;SDS011;39583;54.682;30.662;2023-05-03T11:33:42;14.40;;;13.45;;
53688;SDS011;39583;54.682;30.662;2023-05-03T11:36:08;11.55;;;10.93;;
53688;SDS011;39583;54.682;30.662;2023-05-03T11:38:36;16.50;;;15.60;;
53688;SDS011;39583;54.682;30.662;2023-05-03T11:41:13;9.95;;;9.35;;
53688;SDS011;39583;54.682;30.662;2023-05-03T11:43:44;14.38;;;13.45;;
53688;SDS011;39583;54.682;30.662;2023-05-03T11:46:21;17.23;;;16.25;;
53688;SDS011;39583;54.682;30.662;2023-05-03T11:48:49;21.15;;;20.08;;
53688;SDS011;39583;54.682;30.662;2023-05-03T11:51:18;12.88;;;12.13;;
53688;SDS011;39583;54.682;30.662;2023-05-03T11:53:46;24.08;;;22.88;;
53688;SDS011;39583;54.682;30.662;2023-05-03T11:56:13;19.40;;;18.38;;
53688;SDS011;39583;54.682;30.662;2023-05-03T11:58:52;13.18;;;12.38;;
53688;SDS011;39583;54.682;30.662;2023-05-03T12:01:22;14.98;;;14.10;;
53688;SDS011;39583;54.682;30.662;2023-05-03T12:03:53;11.13;;;10.52;;
53688;SDS011;39583;54.682;30.662;2023-05-03T12:06:23;11.55;;;10.95;;
53688;SDS011;39583;54.682;30.662;2023-05-03T12:08:51;9.07;;;8.57;;
53688;SDS011;39583;54.682;30.662;2023-05-03T12:11:17;11.57;;;10.93;;
53688;SDS011;39583;54.682;30.662;2023-05-03T12:13:43;7.63;;;7.07;;
53688;SDS011;39583;54.682;30.662;2023-05-03T12:16:10;3.83;;;3.53;;
53688;SDS011;39583;54.682;30.662;2023-05-03T12:21:15;10.98;;;10.38;;
53688;SDS011;39583;54.682;30.662;2023-05-03T12:23:42;3.95;;;3.75;;
53688;SDS011;39583;54.682;30.662;2023-05-03T12:26:08;3.13;;;2.92;;
53688;SDS011;39583;54.682;30.662;2023-05-03T12:28:34;6.07;;;5.70;;
53688;SDS011;39583;54.682;30.662;2023-05-03T12:31:00;5.75;;;5.45;;
53688;SDS011;39583;54.682;30.662;2023-05-03T12:33:26;5.00;;;4.70;;
53688;SDS011;39583;54.682;30.662;2023-05-03T12:35:52;3.25;;;3.05;;
53688;SDS011;39583;54.682;30.662;2023-05-03T12:38:18;2.25;;;2.13;;
53688;SDS011;39583;54.682;30.662;2023-05-03T12:40:43;2.90;;;2.70;;
53688;SDS011;39583;54.682;30.662;2023-05-03T12:43:11;3.38;;;3.17;;
53688;SDS011;39583;54.682;30.662;2023-05-03T12:45:37;2.55;;;2.35;;
53688;SDS011;39583;54.682;30.662;2023-05-03T12:48:02;2.60;;;2.45;;
53688;SDS011;39583;54.682;30.662;2023-05-03T12:50:29;3.90;;;3.60;;
53688;SDS011;39583;54.682;30.662;2023-05-03T12:52:55;3.28;;;3.08;;
53688;SDS011;39583;54.682;30.662;2023-05-03T12:55:21;3.30;;;2.80;;
53688;SDS011;39583;54.682;30.662;2023-05-03T12:57:47;3.15;;;2.92;;
53688;SDS011;39583;54.682;30.662;2023-05-03T13:00:13;3.45;;;3.25;;
53688;SDS011;39583;54.682;30.662;2023-05-03T13:02:42;3.33;;;3.13;;
53688;SDS011;39583;54.682;30.662;2023-05-03T13:05:08;6.80;;;6.35;;
53688;SDS011;39583;54.682;30.662;2023-05-03T13:07:34;3.03;;;2.83;;
53688;SDS011;39583;54.682;30.662;2023-05-03T13:10:00;3.78;;;2.92;;
53688;SDS011;39583;54.682;30.662;2023-05-03T13:12:26;6.38;;;4.22;;
53688;SDS011;39583;54.682;30.662;2023-05-03T13:14:52;2.72;;;2.53;;
53688;SDS011;39583;54.682;30.662;2023-05-03T13:17:22;3.22;;;3.03;;
53688;SDS011;39583;54.682;30.662;2023-05-03T13:19:48;8.45;;;7.90;;
53688;SDS011;39583;54.682;30.662;2023-05-03T13:22:15;3.90;;;3.67;;
53688;SDS011;39583;54.682;30.662;2023-05-03T13:24:43;3.38;;;3.17;;
53688;SDS011;39583;54.682;30.662;2023-05-03T13:27:09;2.78;;;2.58;;
53688;SDS011;39583;54.682;30.662;2023-05-03T13:29:38;3.67;;;2.70;;
53688;SDS011;39583;54.682;30.662;2023-05-03T13:32:05;2.90;;;2.80;;
53688;SDS011;39583;54.682;30.662;2023-05-03T13:34:31;3.10;;;2.90;;
53688;SDS011;39583;54.682;30.662;2023-05-03T13:36:58;3.25;;;3.03;;
53688;SDS011;39583;54.682;30.662;2023-05-03T13:39:24;6.18;;;3.45;;
53688;SDS011;39583;54.682;30.662;2023-05-03T13:41:50;2.72;;;2.10;;
53688;SDS011;39583;54.682;30.662;2023-05-03T13:44:16;3.47;;;2.92;;
53688;SDS011;39583;54.682;30.662;2023-05-03T13:46:43;3.08;;;2.80;;
53688;SDS011;39583;54.682;30.662;2023-05-03T13:49:10;2.60;;;2.35;;
53688;SDS011;39583;54.682;30.662;2023-05-03T13:51:36;3.05;;;2.85;;
53688;SDS011;39583;54.682;30.662;2023-05-03T13:54:03;4.57;;;4.28;;
53688;SDS011;39583;54.682;30.662;2023-05-03T13:56:30;3.38;;;3.17;;
53688;SDS011;39583;54.682;30.662;2023-05-03T13:58:57;4.47;;;4.15;;
53688;SDS011;39583;54.682;30.662;2023-05-03T14:01:23;3.42;;;3.13;;
53688;SDS011;39583;54.682;30.662;2023-05-03T14:03:50;11.70;;;11.00;;
53688;SDS011;39583;54.682;30.662;2023-05-03T14:06:18;3.13;;;2.92;;
53688;SDS011;39583;54.682;30.662;2023-05-03T14:08:45;5.50;;;5.18;;
53688;SDS011;39583;54.682;30.662;2023-05-03T14:11:12;3.13;;;2.92;;
53688;SDS011;39583;54.682;30.662;2023-05-03T14:13:39;3.35;;;3.15;;
53688;SDS011;39583;54.682;30.662;2023-05-03T14:16:06;2.80;;;2.67;;
53688;SDS011;39583;54.682;30.662;2023-05-03T14:18:32;2.55;;;2.35;;
53688;SDS011;39583;54.682;30.662;2023-05-03T14:20:58;3.70;;;3.40;;
53688;SDS011;39583;54.682;30.662;2023-05-03T14:23:24;6.32;;;3.53;;
53688;SDS011;39583;54.682;30.662;2023-05-03T14:25:50;3.28;;;2.83;;
53688;SDS011;39583;54.682;30.662;2023-05-03T14:28:17;2.67;;;2.33;;
53688;SDS011;39583;54.682;30.662;2023-05-03T14:30:44;3.58;;;3.38;;
53688;SDS011;39583;54.682;30.662;2023-05-03T14:33:09;3.20;;;3.00;;
53688;SDS011;39583;54.682;30.662;2023-05-03T14:35:36;3.08;;;2.88;;
53688;SDS011;39583;54.682;30.662;2023-05-03T14:38:02;2.95;;;2.38;;
53688;SDS011;39583;54.682;30.662;2023-05-03T14:40:28;3.70;;;3.40;;
53688;SDS011;39583;54.682;30.662;2023-05-03T14:42:54;3.97;;;3.30;;
53688;SDS011;39583;54.682;30.662;2023-05-03T14:45:20;3.15;;;2.95;;
53688;SDS011;39583;54.682;30.662;2023-05-03T14:47:45;3.53;;;3.33;;
53688;SDS011;39583;54.682;30.662;2023-05-03T14:50:11;2.88;;;2.55;;
53688;SDS011;39583;54.682;30.662;2023-05-03T14:52:37;3.33;;;3.13;;
53688;SDS011;39583;54.682;30.662;2023-05-03T14:55:06;2.58;;;2.40;;
53688;SDS011;39583;54.682;30.662;2023-05-03T14:57:33;2.88;;;2.67;;
53688;SDS011;39583;54.682;30.662;2023-05-03T14:59:59;2.92;;;2.72;;
53688;SDS011;39583;54.682;30.662;2023-05-03T15:02:26;2.63;;;2.42;;
53688;SDS011;39583;54.682;30.662;2023-05-03T15:04:52;2.85;;;2.72;;
53688;SDS011;39583;54.682;30.662;2023-05-03T15:07:18;2.58;;;2.38;;
53688;SDS011;39583;54.682;30.662;2023-05-03T15:09:45;2.72;;;2.53;;
53688;SDS011;39583;54.682;30.662;2023-05-03T15:12:11;4.18;;;2.90;;
53688;SDS011;39583;54.682;30.662;2023-05-03T15:14:38;3.00;;;2.40;;
53688;SDS011;39583;54.682;30.662;2023-05-03T15:17:04;3.90;;;3.70;;
53688;SDS011;39583;54.682;30.662;2023-05-03T15:19:30;4.00;;;3.70;;
53688;SDS011;39583;54.682;30.662;2023-05-03T15:21:56;5.50;;;5.15;;
53688;SDS011;39583;54.682;30.662;2023-05-03T15:24:22;3.97;;;3.03;;
53688;SDS011;39583;54.682;30.662;2023-05-03T15:26:48;3.38;;;3.17;;
53688;SDS011;39583;54.682;30.662;2023-05-03T15:29:14;2.80;;;2.60;;
53688;SDS011;39583;54.682;30.662;2023-05-03T15:31:40;3.35;;;3.15;;
53688;SDS011;39583;54.682;30.662;2023-05-03T15:34:07;2.78;;;2.58;;
53688;SDS011;39583;54.682;30.662;2023-05-03T15:36:35;3.70;;;3.40;;
53688;SDS011;39583;54.682;30.662;2023-05-03T15:39:02;2.75;;;2.55;;
53688;SDS011;39583;54.682;30.662;2023-05-03T15:41:28;2.78;;;2.58;;
53688;SDS011;39583;54.682;30.662;2023-05-03T15:43:55;2.42;;;1.98;;
53688;SDS011;39583;54.682;30.662;2023-05-03T15:46:21;2.92;;;2.72;;
53688;SDS011;39583;54.682;30.662;2023-05-03T15:48:47;7.72;;;3.30;;
53688;SDS011;39583;54.682;30.662;2023-05-03T15:51:13;3.85;;;2.92;;
53688;SDS011;39583;54.682;30.662;2023-05-03T15:53:39;2.97;;;2.80;;
53688;SDS011;39583;54.682;30.662;2023-05-03T15:56:05;2.78;;;2.50;;
53688;SDS011;39583;54.682;30.662;2023-05-03T15:58:32;4.50;;;2.72;;
53688;SDS011;39583;54.682;30.662;2023-05-03T16:00:58;2.35;;;2.15;;
53688;SDS011;39583;54.682;30.662;2023-05-03T16:03:24;3.72;;;2.92;;
53688;SDS011;39583;54.682;30.662;2023-05-03T16:05:53;2.80;;;2.63;;
53688;SDS011;39583;54.682;30.662;2023-05-03T16:08:20;2.33;;;2.22;;
53688;SDS011;39583;54.682;30.662;2023-05-03T16:10:46;10.13;;;4.10;;
53688;SDS011;39583;54.682;30.662;2023-05-03T16:13:13;2.60;;;2.40;;
53688;SDS011;39583;54.682;30.662;2023-05-03T16:15:39;3.40;;;3.08;;
53688;SDS011;39583;54.682;30.662;2023-05-03T16:18:06;9.02;;;3.88;;
53688;SDS011;39583;54.682;30.662;2023-05-03T16:20:32;1.67;;;1.58;;
53688;SDS011;39583;54.682;30.662;2023-05-03T16:22:58;2.85;;;2.65;;
53688;SDS011;39583;54.682;30.662;2023-05-03T16:25:23;2.75;;;2.55;;
53688;SDS011;39583;54.682;30.662;2023-05-03T16:27:50;3.88;;;2.55;;
53688;SDS011;39583;54.682;30.662;2023-05-03T16:30:15;2.17;;;2.08;;
53688;SDS011;39583;54.682;30.662;2023-05-03T16:32:43;2.28;;;2.15;;
53688;SDS011;39583;54.682;30.662;2023-05-03T16:35:09;2.20;;;2.10;;
53688;SDS011;39583;54.682;30.662;2023-05-03T16:37:35;3.20;;;1.90;;
53688;SDS011;39583;54.682;30.662;2023-05-03T16:40:02;2.30;;;2.10;;
53688;SDS011;39583;54.682;30.662;2023-05-03T16:42:36;2.35;;;2.15;;
53688;SDS011;39583;54.682;30.662;2023-05-03T16:45:03;2.08;;;1.88;;
53688;SDS011;39583;54.682;30.662;2023-05-03T16:47:32;3.55;;;1.85;;
53688;SDS011;39583;54.682;30.662;2023-05-03T16:49:59;2.28;;;2.08;;
53688;SDS011;39583;54.682;30.662;2023-05-03T16:52:25;2.08;;;1.80;;
53688;SDS011;39583;54.682;30.662;2023-05-03T16:54:53;2.03;;;1.83;;
53688;SDS011;39583;54.682;30.662;2023-05-03T16:57:19;2.20;;;2.00;;
53688;SDS011;39583;54.682;30.662;2023-05-03T16:59:45;2.25;;;1.73;;
53688;SDS011;39583;54.682;30.662;2023-05-03T17:02:11;1.88;;;1.77;;
53688;SDS011;39583;54.682;30.662;2023-05-03T17:04:37;8.93;;;2.78;;
53688;SDS011;39583;54.682;30.662;2023-05-03T17:07:03;6.60;;;2.75;;
53688;SDS011;39583;54.682;30.662;2023-05-03T17:09:29;2.28;;;2.05;;
53688;SDS011;39583;54.682;30.662;2023-05-03T17:11:55;1.63;;;1.52;;
53688;SDS011;39583;54.682;30.662;2023-05-03T17:14:22;2.67;;;1.92;;
53688;SDS011;39583;54.682;30.662;2023-05-03T17:16:48;1.77;;;1.67;;
53688;SDS011;39583;54.682;30.662;2023-05-03T17:19:15;2.20;;;1.98;;
53688;SDS011;39583;54.682;30.662;2023-05-03T17:21:42;3.50;;;2.33;;
53688;SDS011;39583;54.682;30.662;2023-05-03T17:24:08;1.90;;;1.80;;
53688;SDS011;39583;54.682;30.662;2023-05-03T17:26:35;2.10;;;1.83;;
53688;SDS011;39583;54.682;30.662;2023-05-03T17:29:03;2.45;;;2.25;;
53688;SDS011;39583;54.682;30.662;2023-05-03T17:31:33;3.53;;;2.08;;
53688;SDS011;39583;54.682;30.662;2023-05-03T17:34:00;2.03;;;1.85;;
53688;SDS011;39583;54.682;30.662;2023-05-03T17:36:26;2.75;;;2.55;;
53688;SDS011;39583;54.682;30.662;2023-05-03T17:38:54;3.40;;;3.10;;
53688;SDS011;39583;54.682;30.662;2023-05-03T17:41:20;3.47;;;3.13;;
53688;SDS011;39583;54.682;30.662;2023-05-03T17:43:46;3.63;;;3.42;;
53688;SDS011;39583;54.682;30.662;2023-05-03T17:46:12;3.50;;;3.30;;
53688;SDS011;39583;54.682;30.662;2023-05-03T17:48:39;4.05;;;3.00;;
53688;SDS011;39583;54.682;30.662;2023-05-03T17:51:12;3.65;;;3.35;;
53688;SDS011;39583;54.682;30.662;2023-05-03T17:53:39;3.35;;;3.15;;
53688;SDS011;39583;54.682;30.662;2023-05-03T17:56:14;2.97;;;2.80;;
53688;SDS011;39583;54.682;30.662;2023-05-03T17:58:42;8.63;;;3.25;;
53688;SDS011;39583;54.682;30.662;2023-05-03T18:01:08;3.67;;;3.47;;
53688;SDS011;39583;54.682;30.662;2023-05-03T18:03:37;4.40;;;3.20;;
53688;SDS011;39583;54.682;30.662;2023-05-03T18:06:06;4.13;;;3.92;;
53688;SDS011;39583;54.682;30.662;2023-05-03T18:08:34;6.03;;;5.57;;
53688;SDS011;39583;54.682;30.662;2023-05-03T18:11:00;6.00;;;5.60;;
53688;SDS011;39583;54.682;30.662;2023-05-03T18:13:28;4.03;;;3.75;;
53688;SDS011;39583;54.682;30.662;2023-05-03T18:15:56;4.25;;;3.90;;
53688;SDS011;39583;54.682;30.662;2023-05-03T18:18:22;3.22;;;2.97;;
53688;SDS011;39583;54.682;30.662;2023-05-03T18:23:28;3.40;;;3.20;;
53688;SDS011;39583;54.682;30.662;2023-05-03T18:25:57;3.90;;;3.53;;
53688;SDS011;39583;54.682;30.662;2023-05-03T18:28:24;3.60;;;3.40;;
53688;SDS011;39583;54.682;30.662;2023-05-03T18:30:50;7.85;;;6.10;;
53688;SDS011;39583;54.682;30.662;2023-05-03T18:33:23;7.45;;;5.72;;
53688;SDS011;39583;54.682;30.662;2023-05-03T18:35:51;3.63;;;3.33;;
53688;SDS011;39583;54.682;30.662;2023-05-03T18:38:17;2.10;;;1.90;;
53688;SDS011;39583;54.682;30.662;2023-05-03T18:40:45;1.60;;;1.45;;
53688;SDS011;39583;54.682;30.662;2023-05-03T18:43:12;2.65;;;1.80;;
53688;SDS011;39583;54.682;30.662;2023-05-03T18:45:39;1.80;;;1.70;;
53688;SDS011;39583;54.682;30.662;2023-05-03T18:48:06;3.60;;;2.33;;
53688;SDS011;39583;54.682;30.662;2023-05-03T18:50:32;3.17;;;2.92;;
53688;SDS011;39583;54.682;30.662;2023-05-03T18:52:59;4.80;;;2.92;;
53688;SDS011;39583;54.682;30.662;2023-05-03T18:55:25;4.95;;;4.60;;
53688;SDS011;39583;54.682;30.662;2023-05-03T18:57:51;4.25;;;3.97;;
53688;SDS011;39583;54.682;30.662;2023-05-03T19:00:17;8.82;;;8.30;;
53688;SDS011;39583;54.682;30.662;2023-05-03T19:02:43;7.32;;;6.93;;
